الصفحة الرئيسية
METAR-TAF:

METAR-TAF

مطار :

سنغافورة, سنغافورة

مطار شانغي سنغافورة

دائرة عرض: 01-22N, خط طول: 103-59E, ارتفاع: 5 متر

مراقبة الطقس الحالي

تاريخ ووقت الإصدار 10 دقيقة قبل الساعة 07:00UTC
ريح 5 عقدة من الشمال الشرقي, الاتجاه يتراوح بين الشمال و الشرق
درجة الحرارة 32°درجة مئوية
الرطوبة 63%
ضغط 1007 hPa
الرؤية 10 كم أو أكثر
غيوم قليلة على ارتفاع 1800 قدم, مزن ركامية عمودية.
غيوم متفرقة على ارتفاع 2000 قدم
غيوم مفككة على ارتفاع 30000 قدم

METAR: WSSS 190700Z 04005KT 350V100 9999 FEW018TCU SCT020 BKN300 32/24 Q1007 NOSIG

زمن: 15:10 (07:10 UTC)

توقعات

تاريخ ووقت الإصدار 2ساعات و 10 دقيقة قبل الساعة 05:00UTC
التوقعات صالحة من19 الساعة 06 UTC إلى 20 الساعة 12 UTC
ريح 8 عقدة من الشمال
الرؤية 10 كم أو أكثر
غيوم قليلة على ارتفاع 1800 قدم, مزنة ركامية.
غيوم متفرقة على ارتفاع 2000 قدم
مؤقت
من 19 الساعة 06 UTC إلى 19 الساعة 10 UTC
الرؤية: 3000 متر
غيوم قليلة على ارتفاع 1200 قدم, مزنة ركامية.
غيوم مفككة على ارتفاع 1500 قدم
عاصفة رعدية, مطر

TAF: WSSS 190500Z 1906/2012 35008KT 9999 FEW018CB SCT020 TEMPO 1906/1910 3000 TSRA FEW012CB BKN015

أرصاد الطقس والتوقعات من أكثر من 4000 مطار (تقارير الطقس للمطار METAR والتنبؤ بالطقس بالمطارTAF).

المحطات المتاحة هي النقط الصفراء والحمراء على الخريطة.

حرك المؤشر فوق النقطة لمعرفة اسم المحطة.

ثم انقر لمعرفة أرصاد وتوقعات الطقس.

لتغيير الخارطة: اضغط على الأزرار الخضراء مع رمز الصليب الأسود للتكبير. على الزر الأخضر مع شرطة للتصغير، أو على الأسهم الخضراء للخرائط المجاورة.


METAR-TAF: